sensor_id;sensor_type;location;lat;lon;timestamp;P1;durP1;ratioP1;P2;durP2;ratioP2
65130;SDS011;51709;54.912;8.316;2022-11-09T00:03:54;23.42;;;4.15;;
65130;SDS011;51709;54.912;8.316;2022-11-09T00:09:16;20.45;;;5.15;;
65130;SDS011;51709;54.912;8.316;2022-11-09T00:14:36;13.63;;;3.28;;
65130;SDS011;51709;54.912;8.316;2022-11-09T00:19:58;14.32;;;4.00;;
65130;SDS011;51709;54.912;8.316;2022-11-09T00:25:18;22.25;;;3.97;;
65130;SDS011;51709;54.912;8.316;2022-11-09T00:30:39;14.82;;;3.15;;
65130;SDS011;51709;54.912;8.316;2022-11-09T00:36:06;10.88;;;2.72;;
65130;SDS011;51709;54.912;8.316;2022-11-09T00:41:32;9.10;;;4.05;;
65130;SDS011;51709;54.912;8.316;2022-11-09T00:46:52;15.98;;;3.42;;
65130;SDS011;51709;54.912;8.316;2022-11-09T00:52:13;14.93;;;2.83;;
65130;SDS011;51709;54.912;8.316;2022-11-09T00:57:34;8.73;;;3.30;;
65130;SDS011;51709;54.912;8.316;2022-11-09T01:02:54;15.52;;;3.90;;
65130;SDS011;51709;54.912;8.316;2022-11-09T01:08:17;12.93;;;2.67;;
65130;SDS011;51709;54.912;8.316;2022-11-09T01:13:38;12.55;;;2.65;;
65130;SDS011;51709;54.912;8.316;2022-11-09T01:19:00;24.30;;;4.25;;
65130;SDS011;51709;54.912;8.316;2022-11-09T01:24:20;22.02;;;4.13;;
65130;SDS011;51709;54.912;8.316;2022-11-09T01:29:41;17.33;;;4.22;;
65130;SDS011;51709;54.912;8.316;2022-11-09T01:35:02;15.48;;;3.97;;
65130;SDS011;51709;54.912;8.316;2022-11-09T01:40:23;10.50;;;2.80;;
65130;SDS011;51709;54.912;8.316;2022-11-09T01:45:44;13.77;;;4.45;;
65130;SDS011;51709;54.912;8.316;2022-11-09T01:51:13;19.33;;;4.13;;
65130;SDS011;51709;54.912;8.316;2022-11-09T01:56:43;15.95;;;3.75;;
65130;SDS011;51709;54.912;8.316;2022-11-09T02:02:08;18.23;;;3.58;;
65130;SDS011;51709;54.912;8.316;2022-11-09T02:07:33;18.58;;;2.90;;
65130;SDS011;51709;54.912;8.316;2022-11-09T02:12:54;11.43;;;3.88;;
65130;SDS011;51709;54.912;8.316;2022-11-09T02:18:17;20.65;;;3.30;;
65130;SDS011;51709;54.912;8.316;2022-11-09T02:23:39;16.80;;;3.40;;
65130;SDS011;51709;54.912;8.316;2022-11-09T02:29:00;20.60;;;3.67;;
65130;SDS011;51709;54.912;8.316;2022-11-09T02:34:25;15.38;;;3.92;;
65130;SDS011;51709;54.912;8.316;2022-11-09T02:39:47;15.93;;;3.72;;
65130;SDS011;51709;54.912;8.316;2022-11-09T02:45:10;10.63;;;3.17;;
65130;SDS011;51709;54.912;8.316;2022-11-09T02:50:33;17.38;;;3.50;;
65130;SDS011;51709;54.912;8.316;2022-11-09T02:55:58;15.40;;;3.63;;
65130;SDS011;51709;54.912;8.316;2022-11-09T03:01:18;11.32;;;3.90;;
65130;SDS011;51709;54.912;8.316;2022-11-09T03:06:39;11.90;;;2.97;;
65130;SDS011;51709;54.912;8.316;2022-11-09T03:12:05;10.20;;;2.67;;
65130;SDS011;51709;54.912;8.316;2022-11-09T03:17:47;19.00;;;3.58;;
65130;SDS011;51709;54.912;8.316;2022-11-09T03:23:11;11.77;;;3.03;;
65130;SDS011;51709;54.912;8.316;2022-11-09T03:28:33;16.95;;;3.50;;
65130;SDS011;51709;54.912;8.316;2022-11-09T03:33:54;19.42;;;5.25;;
65130;SDS011;51709;54.912;8.316;2022-11-09T03:39:15;15.02;;;3.08;;
65130;SDS011;51709;54.912;8.316;2022-11-09T03:44:35;13.52;;;3.72;;
65130;SDS011;51709;54.912;8.316;2022-11-09T03:49:56;19.90;;;3.50;;
65130;SDS011;51709;54.912;8.316;2022-11-09T03:55:17;17.60;;;3.78;;
65130;SDS011;51709;54.912;8.316;2022-11-09T04:00:38;19.52;;;3.72;;
65130;SDS011;51709;54.912;8.316;2022-11-09T04:05:59;15.63;;;4.15;;
65130;SDS011;51709;54.912;8.316;2022-11-09T04:11:19;9.68;;;3.20;;
65130;SDS011;51709;54.912;8.316;2022-11-09T04:16:40;13.45;;;3.05;;
65130;SDS011;51709;54.912;8.316;2022-11-09T04:22:01;18.60;;;3.95;;
65130;SDS011;51709;54.912;8.316;2022-11-09T04:27:21;11.32;;;2.72;;
65130;SDS011;51709;54.912;8.316;2022-11-09T04:32:42;10.35;;;3.22;;
65130;SDS011;51709;54.912;8.316;2022-11-09T04:38:04;17.67;;;3.80;;
65130;SDS011;51709;54.912;8.316;2022-11-09T04:43:26;13.13;;;3.47;;
65130;SDS011;51709;54.912;8.316;2022-11-09T04:48:47;20.30;;;3.85;;
65130;SDS011;51709;54.912;8.316;2022-11-09T04:54:08;15.38;;;3.78;;
65130;SDS011;51709;54.912;8.316;2022-11-09T04:59:29;18.70;;;4.28;;
65130;SDS011;51709;54.912;8.316;2022-11-09T05:04:50;18.70;;;3.28;;
65130;SDS011;51709;54.912;8.316;2022-11-09T05:10:11;14.15;;;4.60;;
65130;SDS011;51709;54.912;8.316;2022-11-09T05:15:31;17.98;;;4.07;;
65130;SDS011;51709;54.912;8.316;2022-11-09T05:20:52;12.40;;;2.65;;
65130;SDS011;51709;54.912;8.316;2022-11-09T05:26:18;20.10;;;3.67;;
65130;SDS011;51709;54.912;8.316;2022-11-09T05:31:39;27.45;;;3.70;;
65130;SDS011;51709;54.912;8.316;2022-11-09T05:37:01;24.42;;;4.88;;
65130;SDS011;51709;54.912;8.316;2022-11-09T05:42:23;18.50;;;3.65;;
65130;SDS011;51709;54.912;8.316;2022-11-09T05:47:44;17.30;;;4.13;;
65130;SDS011;51709;54.912;8.316;2022-11-09T05:53:04;28.05;;;5.07;;
65130;SDS011;51709;54.912;8.316;2022-11-09T05:58:25;15.15;;;3.70;;
65130;SDS011;51709;54.912;8.316;2022-11-09T06:03:45;26.50;;;4.88;;
65130;SDS011;51709;54.912;8.316;2022-11-09T06:09:06;21.75;;;4.13;;
65130;SDS011;51709;54.912;8.316;2022-11-09T06:14:27;22.38;;;4.75;;
65130;SDS011;51709;54.912;8.316;2022-11-09T06:19:48;20.60;;;3.90;;
65130;SDS011;51709;54.912;8.316;2022-11-09T06:25:08;21.73;;;3.90;;
65130;SDS011;51709;54.912;8.316;2022-11-09T06:30:29;15.38;;;4.07;;
65130;SDS011;51709;54.912;8.316;2022-11-09T06:35:49;16.08;;;3.92;;
65130;SDS011;51709;54.912;8.316;2022-11-09T06:41:16;14.25;;;4.25;;
65130;SDS011;51709;54.912;8.316;2022-11-09T06:46:37;16.27;;;3.67;;
65130;SDS011;51709;54.912;8.316;2022-11-09T06:51:58;17.42;;;4.25;;
65130;SDS011;51709;54.912;8.316;2022-11-09T06:57:18;20.65;;;4.70;;
65130;SDS011;51709;54.912;8.316;2022-11-09T07:02:40;18.98;;;5.18;;
65130;SDS011;51709;54.912;8.316;2022-11-09T07:08:01;24.83;;;4.50;;
65130;SDS011;51709;54.912;8.316;2022-11-09T07:13:22;34.92;;;5.00;;
65130;SDS011;51709;54.912;8.316;2022-11-09T07:18:43;23.23;;;3.33;;
65130;SDS011;51709;54.912;8.316;2022-11-09T07:24:05;13.23;;;3.75;;
65130;SDS011;51709;54.912;8.316;2022-11-09T07:29:25;25.35;;;4.75;;
65130;SDS011;51709;54.912;8.316;2022-11-09T07:34:46;14.70;;;3.40;;
65130;SDS011;51709;54.912;8.316;2022-11-09T07:40:07;17.52;;;4.93;;
65130;SDS011;51709;54.912;8.316;2022-11-09T07:45:28;28.75;;;4.85;;
65130;SDS011;51709;54.912;8.316;2022-11-09T07:50:49;23.67;;;4.47;;
65130;SDS011;51709;54.912;8.316;2022-11-09T07:56:10;30.95;;;5.03;;
65130;SDS011;51709;54.912;8.316;2022-11-09T08:01:31;15.20;;;4.72;;
65130;SDS011;51709;54.912;8.316;2022-11-09T08:06:52;21.40;;;3.83;;
65130;SDS011;51709;54.912;8.316;2022-11-09T08:12:13;18.98;;;4.35;;
65130;SDS011;51709;54.912;8.316;2022-11-09T08:17:34;31.13;;;4.25;;
65130;SDS011;51709;54.912;8.316;2022-11-09T08:22:54;25.20;;;4.63;;
65130;SDS011;51709;54.912;8.316;2022-11-09T08:28:21;14.13;;;3.80;;
65130;SDS011;51709;54.912;8.316;2022-11-09T08:33:43;28.58;;;4.35;;
65130;SDS011;51709;54.912;8.316;2022-11-09T08:39:04;19.33;;;4.45;;
65130;SDS011;51709;54.912;8.316;2022-11-09T08:44:24;20.88;;;4.35;;
65130;SDS011;51709;54.912;8.316;2022-11-09T08:49:45;27.58;;;4.57;;
65130;SDS011;51709;54.912;8.316;2022-11-09T08:55:06;23.10;;;4.75;;
65130;SDS011;51709;54.912;8.316;2022-11-09T09:00:29;14.40;;;3.55;;
65130;SDS011;51709;54.912;8.316;2022-11-09T09:13:15;26.65;;;3.17;;
65130;SDS011;51709;54.912;8.316;2022-11-09T09:18:35;13.80;;;4.65;;
65130;SDS011;51709;54.912;8.316;2022-11-09T09:23:56;12.38;;;3.72;;
65130;SDS011;51709;54.912;8.316;2022-11-09T09:29:17;25.70;;;4.50;;
65130;SDS011;51709;54.912;8.316;2022-11-09T09:34:37;22.67;;;4.93;;
65130;SDS011;51709;54.912;8.316;2022-11-09T09:39:58;29.05;;;4.57;;
65130;SDS011;51709;54.912;8.316;2022-11-09T09:45:23;25.05;;;4.85;;
65130;SDS011;51709;54.912;8.316;2022-11-09T09:50:48;25.02;;;4.82;;
65130;SDS011;51709;54.912;8.316;2022-11-09T09:56:22;15.35;;;4.10;;
65130;SDS011;51709;54.912;8.316;2022-11-09T10:01:46;14.60;;;4.30;;
65130;SDS011;51709;54.912;8.316;2022-11-09T10:07:12;17.88;;;4.53;;
65130;SDS011;51709;54.912;8.316;2022-11-09T10:13:09;21.33;;;5.00;;
65130;SDS011;51709;54.912;8.316;2022-11-09T10:19:00;12.75;;;3.83;;
65130;SDS011;51709;54.912;8.316;2022-11-09T10:24:48;24.48;;;4.55;;
65130;SDS011;51709;54.912;8.316;2022-11-09T10:30:33;24.38;;;5.10;;
65130;SDS011;51709;54.912;8.316;2022-11-09T10:47:17;13.27;;;4.20;;
65130;SDS011;51709;54.912;8.316;2022-11-09T10:59:26;14.48;;;3.63;;
65130;SDS011;51709;54.912;8.316;2022-11-09T11:11:14;22.48;;;4.40;;
65130;SDS011;51709;54.912;8.316;2022-11-09T11:17:25;19.48;;;4.30;;
65130;SDS011;51709;54.912;8.316;2022-11-09T11:23:17;19.13;;;3.25;;
65130;SDS011;51709;54.912;8.316;2022-11-09T11:28:59;17.48;;;3.58;;
65130;SDS011;51709;54.912;8.316;2022-11-09T11:34:42;16.17;;;4.32;;
65130;SDS011;51709;54.912;8.316;2022-11-09T11:40:41;13.43;;;3.10;;
65130;SDS011;51709;54.912;8.316;2022-11-09T11:46:40;13.43;;;4.05;;
65130;SDS011;51709;54.912;8.316;2022-11-09T11:52:46;24.05;;;5.20;;
65130;SDS011;51709;54.912;8.316;2022-11-09T12:04:54;27.45;;;4.63;;
65130;SDS011;51709;54.912;8.316;2022-11-09T12:10:55;22.25;;;4.18;;
65130;SDS011;51709;54.912;8.316;2022-11-09T12:16:48;15.93;;;3.95;;
65130;SDS011;51709;54.912;8.316;2022-11-09T12:22:34;22.63;;;3.78;;
65130;SDS011;51709;54.912;8.316;2022-11-09T12:34:27;26.90;;;4.15;;
65130;SDS011;51709;54.912;8.316;2022-11-09T12:40:25;21.10;;;4.80;;
65130;SDS011;51709;54.912;8.316;2022-11-09T12:46:08;38.38;;;6.30;;
65130;SDS011;51709;54.912;8.316;2022-11-09T12:51:49;19.58;;;3.97;;
65130;SDS011;51709;54.912;8.316;2022-11-09T12:57:34;16.13;;;4.30;;
65130;SDS011;51709;54.912;8.316;2022-11-09T13:03:24;28.52;;;4.43;;
65130;SDS011;51709;54.912;8.316;2022-11-09T13:09:27;19.15;;;4.57;;
65130;SDS011;51709;54.912;8.316;2022-11-09T13:15:23;24.55;;;4.53;;
65130;SDS011;51709;54.912;8.316;2022-11-09T13:21:50;13.63;;;3.90;;
65130;SDS011;51709;54.912;8.316;2022-11-09T13:27:04;13.90;;;4.18;;
65130;SDS011;51709;54.912;8.316;2022-11-09T13:33:11;16.70;;;3.40;;
65130;SDS011;51709;54.912;8.316;2022-11-09T13:39:21;20.70;;;3.17;;
65130;SDS011;51709;54.912;8.316;2022-11-09T13:51:13;20.30;;;4.00;;
65130;SDS011;51709;54.912;8.316;2022-11-09T14:02:35;11.15;;;3.03;;
65130;SDS011;51709;54.912;8.316;2022-11-09T14:08:21;19.52;;;3.97;;
65130;SDS011;51709;54.912;8.316;2022-11-09T14:20:08;13.20;;;3.45;;
65130;SDS011;51709;54.912;8.316;2022-11-09T14:26:05;9.65;;;2.33;;
65130;SDS011;51709;54.912;8.316;2022-11-09T14:31:48;12.43;;;2.47;;
65130;SDS011;51709;54.912;8.316;2022-11-09T14:37:28;23.27;;;3.08;;
65130;SDS011;51709;54.912;8.316;2022-11-09T14:43:33;26.10;;;4.90;;
65130;SDS011;51709;54.912;8.316;2022-11-09T14:49:17;26.80;;;4.80;;
65130;SDS011;51709;54.912;8.316;2022-11-09T14:54:59;22.77;;;5.45;;
65130;SDS011;51709;54.912;8.316;2022-11-09T15:00:39;18.67;;;5.25;;
65130;SDS011;51709;54.912;8.316;2022-11-09T15:06:24;17.02;;;4.28;;
65130;SDS011;51709;54.912;8.316;2022-11-09T15:12:04;26.60;;;5.88;;
65130;SDS011;51709;54.912;8.316;2022-11-09T15:17:51;19.30;;;4.47;;
65130;SDS011;51709;54.912;8.316;2022-11-09T15:23:36;14.38;;;2.50;;
65130;SDS011;51709;54.912;8.316;2022-11-09T15:35:16;9.25;;;2.08;;
65130;SDS011;51709;54.912;8.316;2022-11-09T15:40:56;15.30;;;2.38;;
65130;SDS011;51709;54.912;8.316;2022-11-09T15:46:42;17.00;;;1.92;;
65130;SDS011;51709;54.912;8.316;2022-11-09T15:52:24;2.85;;;0.98;;
65130;SDS011;51709;54.912;8.316;2022-11-09T15:58:05;12.40;;;1.63;;
65130;SDS011;51709;54.912;8.316;2022-11-09T16:03:44;14.65;;;3.67;;
65130;SDS011;51709;54.912;8.316;2022-11-09T16:09:23;8.25;;;2.00;;
65130;SDS011;51709;54.912;8.316;2022-11-09T16:15:02;13.30;;;2.22;;
65130;SDS011;51709;54.912;8.316;2022-11-09T16:20:42;7.65;;;2.15;;
65130;SDS011;51709;54.912;8.316;2022-11-09T16:26:22;4.63;;;1.60;;
65130;SDS011;51709;54.912;8.316;2022-11-09T16:32:01;4.53;;;1.42;;
65130;SDS011;51709;54.912;8.316;2022-11-09T16:37:40;29.67;;;2.85;;
65130;SDS011;51709;54.912;8.316;2022-11-09T16:43:20;9.32;;;1.70;;
65130;SDS011;51709;54.912;8.316;2022-11-09T16:49:00;9.23;;;1.42;;
65130;SDS011;51709;54.912;8.316;2022-11-09T16:54:41;5.57;;;1.55;;
65130;SDS011;51709;54.912;8.316;2022-11-09T17:00:20;8.90;;;1.33;;
65130;SDS011;51709;54.912;8.316;2022-11-09T17:06:15;14.45;;;1.73;;
65130;SDS011;51709;54.912;8.316;2022-11-09T17:11:55;16.45;;;2.65;;
65130;SDS011;51709;54.912;8.316;2022-11-09T17:17:34;6.88;;;1.83;;
65130;SDS011;51709;54.912;8.316;2022-11-09T17:23:14;10.02;;;2.25;;
65130;SDS011;51709;54.912;8.316;2022-11-09T17:28:56;8.23;;;1.80;;
65130;SDS011;51709;54.912;8.316;2022-11-09T17:34:35;10.35;;;1.65;;
65130;SDS011;51709;54.912;8.316;2022-11-09T17:40:14;8.27;;;1.27;;
65130;SDS011;51709;54.912;8.316;2022-11-09T17:45:55;4.85;;;1.30;;
65130;SDS011;51709;54.912;8.316;2022-11-09T17:51:34;4.00;;;1.60;;
65130;SDS011;51709;54.912;8.316;2022-11-09T17:57:13;13.38;;;1.10;;
65130;SDS011;51709;54.912;8.316;2022-11-09T18:02:53;13.05;;;1.23;;
65130;SDS011;51709;54.912;8.316;2022-11-09T18:08:33;14.88;;;1.27;;
65130;SDS011;51709;54.912;8.316;2022-11-09T18:14:12;7.05;;;1.33;;
65130;SDS011;51709;54.912;8.316;2022-11-09T18:19:51;14.40;;;2.67;;
65130;SDS011;51709;54.912;8.316;2022-11-09T18:25:30;10.90;;;1.50;;
65130;SDS011;51709;54.912;8.316;2022-11-09T18:31:11;8.57;;;1.48;;
65130;SDS011;51709;54.912;8.316;2022-11-09T18:36:51;3.95;;;1.10;;
65130;SDS011;51709;54.912;8.316;2022-11-09T18:42:31;7.25;;;1.05;;
65130;SDS011;51709;54.912;8.316;2022-11-09T18:48:11;2.40;;;1.38;;
65130;SDS011;51709;54.912;8.316;2022-11-09T18:53:50;6.35;;;1.77;;
65130;SDS011;51709;54.912;8.316;2022-11-09T18:59:29;7.18;;;0.90;;
65130;SDS011;51709;54.912;8.316;2022-11-09T19:05:09;2.60;;;0.80;;
65130;SDS011;51709;54.912;8.316;2022-11-09T19:10:49;3.75;;;0.82;;
65130;SDS011;51709;54.912;8.316;2022-11-09T19:16:28;5.03;;;0.88;;
65130;SDS011;51709;54.912;8.316;2022-11-09T19:22:12;8.75;;;2.50;;
65130;SDS011;51709;54.912;8.316;2022-11-09T19:27:55;11.70;;;2.25;;
65130;SDS011;51709;54.912;8.316;2022-11-09T19:33:34;10.45;;;1.40;;
65130;SDS011;51709;54.912;8.316;2022-11-09T19:39:14;17.60;;;2.47;;
65130;SDS011;51709;54.912;8.316;2022-11-09T19:44:53;13.52;;;2.83;;
65130;SDS011;51709;54.912;8.316;2022-11-09T19:50:35;8.02;;;2.50;;
65130;SDS011;51709;54.912;8.316;2022-11-09T19:56:14;6.15;;;1.75;;
65130;SDS011;51709;54.912;8.316;2022-11-09T20:01:54;11.38;;;1.52;;
65130;SDS011;51709;54.912;8.316;2022-11-09T20:07:33;17.05;;;2.10;;
65130;SDS011;51709;54.912;8.316;2022-11-09T20:13:13;22.20;;;2.38;;
65130;SDS011;51709;54.912;8.316;2022-11-09T20:18:52;21.33;;;3.95;;
65130;SDS011;51709;54.912;8.316;2022-11-09T20:24:32;18.90;;;2.28;;
65130;SDS011;51709;54.912;8.316;2022-11-09T20:30:12;6.53;;;1.50;;
65130;SDS011;51709;54.912;8.316;2022-11-09T20:35:55;3.50;;;1.30;;
65130;SDS011;51709;54.912;8.316;2022-11-09T20:41:34;11.65;;;2.03;;
65130;SDS011;51709;54.912;8.316;2022-11-09T20:47:14;12.77;;;1.80;;
65130;SDS011;51709;54.912;8.316;2022-11-09T20:53:15;12.65;;;2.70;;
65130;SDS011;51709;54.912;8.316;2022-11-09T20:58:54;7.57;;;1.33;;
65130;SDS011;51709;54.912;8.316;2022-11-09T21:04:34;15.05;;;2.47;;
65130;SDS011;51709;54.912;8.316;2022-11-09T21:10:13;10.82;;;1.98;;
65130;SDS011;51709;54.912;8.316;2022-11-09T21:15:52;15.65;;;2.75;;
65130;SDS011;51709;54.912;8.316;2022-11-09T21:21:32;16.15;;;2.72;;
65130;SDS011;51709;54.912;8.316;2022-11-09T21:27:14;19.45;;;2.78;;
65130;SDS011;51709;54.912;8.316;2022-11-09T21:33:12;17.58;;;3.30;;
65130;SDS011;51709;54.912;8.316;2022-11-09T21:38:51;33.10;;;4.50;;
65130;SDS011;51709;54.912;8.316;2022-11-09T21:44:31;18.95;;;3.75;;
65130;SDS011;51709;54.912;8.316;2022-11-09T21:50:11;18.70;;;4.43;;
65130;SDS011;51709;54.912;8.316;2022-11-09T21:55:50;15.15;;;2.45;;
65130;SDS011;51709;54.912;8.316;2022-11-09T22:01:30;16.65;;;3.38;;
65130;SDS011;51709;54.912;8.316;2022-11-09T22:07:10;17.90;;;2.65;;
65130;SDS011;51709;54.912;8.316;2022-11-09T22:12:49;16.90;;;2.42;;
65130;SDS011;51709;54.912;8.316;2022-11-09T22:18:47;20.10;;;4.18;;
65130;SDS011;51709;54.912;8.316;2022-11-09T22:24:45;24.63;;;3.97;;
65130;SDS011;51709;54.912;8.316;2022-11-09T22:30:25;10.43;;;2.60;;
65130;SDS011;51709;54.912;8.316;2022-11-09T22:36:05;18.48;;;5.15;;
65130;SDS011;51709;54.912;8.316;2022-11-09T22:41:46;24.33;;;4.10;;
65130;SDS011;51709;54.912;8.316;2022-11-09T22:47:25;24.17;;;3.03;;
65130;SDS011;51709;54.912;8.316;2022-11-09T22:53:04;15.32;;;3.88;;
65130;SDS011;51709;54.912;8.316;2022-11-09T22:58:44;20.17;;;3.38;;
65130;SDS011;51709;54.912;8.316;2022-11-09T23:04:23;13.35;;;3.22;;
65130;SDS011;51709;54.912;8.316;2022-11-09T23:10:03;16.77;;;3.17;;
65130;SDS011;51709;54.912;8.316;2022-11-09T23:15:42;27.35;;;2.97;;
65130;SDS011;51709;54.912;8.316;2022-11-09T23:21:32;9.07;;;2.47;;
65130;SDS011;51709;54.912;8.316;2022-11-09T23:27:13;18.75;;;2.95;;
65130;SDS011;51709;54.912;8.316;2022-11-09T23:32:53;27.40;;;3.75;;
65130;SDS011;51709;54.912;8.316;2022-11-09T23:38:33;20.17;;;3.72;;
65130;SDS011;51709;54.912;8.316;2022-11-09T23:44:14;11.45;;;3.13;;
65130;SDS011;51709;54.912;8.316;2022-11-09T23:49:53;29.77;;;5.13;;
65130;SDS011;51709;54.912;8.316;2022-11-09T23:55:32;25.92;;;3.33;;
